sensor_id;sensor_type;location;lat;lon;timestamp;temperature;humidity
55213;DHT22;41083;52.932;6.674;2023-01-13T00:01:16;9.20;99.90
55213;DHT22;41083;52.932;6.674;2023-01-13T00:03:42;9.10;99.90
55213;DHT22;41083;52.932;6.674;2023-01-13T00:06:12;9.20;99.90
55213;DHT22;41083;52.932;6.674;2023-01-13T00:08:38;9.10;99.90
55213;DHT22;41083;52.932;6.674;2023-01-13T00:11:03;9.10;99.90
55213;DHT22;41083;52.932;6.674;2023-01-13T00:13:29;9.10;99.90
55213;DHT22;41083;52.932;6.674;2023-01-13T00:16:01;9.00;99.90
55213;DHT22;41083;52.932;6.674;2023-01-13T00:18:28;9.00;99.90
55213;DHT22;41083;52.932;6.674;2023-01-13T00:21:04;8.90;99.90
55213;DHT22;41083;52.932;6.674;2023-01-13T00:23:31;8.80;99.90
55213;DHT22;41083;52.932;6.674;2023-01-13T00:25:58;8.90;99.90
55213;DHT22;41083;52.932;6.674;2023-01-13T00:28:24;8.80;99.90
55213;DHT22;41083;52.932;6.674;2023-01-13T00:30:49;8.80;99.90
55213;DHT22;41083;52.932;6.674;2023-01-13T00:33:15;8.80;99.90
55213;DHT22;41083;52.932;6.674;2023-01-13T00:35:41;8.80;99.90
55213;DHT22;41083;52.932;6.674;2023-01-13T00:38:06;8.80;99.90
55213;DHT22;41083;52.932;6.674;2023-01-13T00:40:32;8.70;99.90
55213;DHT22;41083;52.932;6.674;2023-01-13T00:42:57;8.70;99.90
55213;DHT22;41083;52.932;6.674;2023-01-13T00:45:42;8.80;99.90
55213;DHT22;41083;52.932;6.674;2023-01-13T00:48:08;8.70;99.90
55213;DHT22;41083;52.932;6.674;2023-01-13T00:50:34;8.70;99.90
55213;DHT22;41083;52.932;6.674;2023-01-13T00:52:59;8.60;99.90
55213;DHT22;41083;52.932;6.674;2023-01-13T00:55:25;8.60;99.90
55213;DHT22;41083;52.932;6.674;2023-01-13T00:57:51;8.60;99.90
55213;DHT22;41083;52.932;6.674;2023-01-13T01:00:17;8.60;99.90
55213;DHT22;41083;52.932;6.674;2023-01-13T01:02:43;8.50;99.90
55213;DHT22;41083;52.932;6.674;2023-01-13T01:05:09;8.50;99.90
55213;DHT22;41083;52.932;6.674;2023-01-13T01:07:34;8.50;99.90
55213;DHT22;41083;52.932;6.674;2023-01-13T01:10:00;8.50;99.90
55213;DHT22;41083;52.932;6.674;2023-01-13T01:12:26;8.50;99.90
55213;DHT22;41083;52.932;6.674;2023-01-13T01:14:51;8.40;99.90
55213;DHT22;41083;52.932;6.674;2023-01-13T01:17:17;8.40;99.90
55213;DHT22;41083;52.932;6.674;2023-01-13T01:19:43;8.40;99.90
55213;DHT22;41083;52.932;6.674;2023-01-13T01:22:08;8.40;99.90
55213;DHT22;41083;52.932;6.674;2023-01-13T01:24:34;8.40;99.90
55213;DHT22;41083;52.932;6.674;2023-01-13T01:26:59;8.40;99.90
55213;DHT22;41083;52.932;6.674;2023-01-13T01:29:25;8.40;99.90
55213;DHT22;41083;52.932;6.674;2023-01-13T01:31:51;8.40;99.90
55213;DHT22;41083;52.932;6.674;2023-01-13T01:34:16;8.40;99.90
55213;DHT22;41083;52.932;6.674;2023-01-13T01:36:42;8.40;99.90
55213;DHT22;41083;52.932;6.674;2023-01-13T01:39:09;8.40;99.90
55213;DHT22;41083;52.932;6.674;2023-01-13T01:41:35;8.40;99.90
55213;DHT22;41083;52.932;6.674;2023-01-13T01:47:04;8.40;99.90
55213;DHT22;41083;52.932;6.674;2023-01-13T01:49:32;8.40;99.90
55213;DHT22;41083;52.932;6.674;2023-01-13T01:52:47;8.40;99.90
55213;DHT22;41083;52.932;6.674;2023-01-13T01:54:53;8.40;99.90
55213;DHT22;41083;52.932;6.674;2023-01-13T01:57:37;8.40;99.90
55213;DHT22;41083;52.932;6.674;2023-01-13T02:00:05;8.40;99.90
55213;DHT22;41083;52.932;6.674;2023-01-13T02:02:31;8.40;99.90
55213;DHT22;41083;52.932;6.674;2023-01-13T02:04:58;8.30;99.90
55213;DHT22;41083;52.932;6.674;2023-01-13T02:07:26;8.30;99.90
55213;DHT22;41083;52.932;6.674;2023-01-13T02:09:54;8.30;99.90
55213;DHT22;41083;52.932;6.674;2023-01-13T02:12:20;8.30;99.90
55213;DHT22;41083;52.932;6.674;2023-01-13T02:15:12;8.30;99.90
55213;DHT22;41083;52.932;6.674;2023-01-13T02:18:02;8.30;99.90
55213;DHT22;41083;52.932;6.674;2023-01-13T02:21:00;8.30;99.90
55213;DHT22;41083;52.932;6.674;2023-01-13T02:27:15;8.30;99.90
55213;DHT22;41083;52.932;6.674;2023-01-13T02:30:06;8.30;99.90
55213;DHT22;41083;52.932;6.674;2023-01-13T02:36:12;8.40;99.90
55213;DHT22;41083;52.932;6.674;2023-01-13T02:38:50;8.40;99.90
55213;DHT22;41083;52.932;6.674;2023-01-13T02:41:26;8.30;99.90
55213;DHT22;41083;52.932;6.674;2023-01-13T02:44:13;8.30;99.90
55213;DHT22;41083;52.932;6.674;2023-01-13T02:49:16;8.30;99.90
55213;DHT22;41083;52.932;6.674;2023-01-13T02:51:46;8.20;99.90
55213;DHT22;41083;52.932;6.674;2023-01-13T02:54:17;8.20;99.90
55213;DHT22;41083;52.932;6.674;2023-01-13T02:56:46;8.20;99.90
55213;DHT22;41083;52.932;6.674;2023-01-13T02:59:13;8.20;99.90
55213;DHT22;41083;52.932;6.674;2023-01-13T03:01:39;8.20;99.90
55213;DHT22;41083;52.932;6.674;2023-01-13T03:08:01;8.20;99.90
55213;DHT22;41083;52.932;6.674;2023-01-13T03:10:23;8.20;99.90
55213;DHT22;41083;52.932;6.674;2023-01-13T03:16:19;8.20;99.90
55213;DHT22;41083;52.932;6.674;2023-01-13T03:21:31;8.20;99.90
55213;DHT22;41083;52.932;6.674;2023-01-13T03:24:05;8.20;99.90
55213;DHT22;41083;52.932;6.674;2023-01-13T03:26:38;8.20;99.90
55213;DHT22;41083;52.932;6.674;2023-01-13T03:29:35;8.20;99.90
55213;DHT22;41083;52.932;6.674;2023-01-13T03:32:05;8.30;99.90
55213;DHT22;41083;52.932;6.674;2023-01-13T03:34:58;8.20;99.90
55213;DHT22;41083;52.932;6.674;2023-01-13T03:37:30;8.20;99.90
55213;DHT22;41083;52.932;6.674;2023-01-13T03:40:01;8.20;99.90
55213;DHT22;41083;52.932;6.674;2023-01-13T03:42:29;8.20;99.90
55213;DHT22;41083;52.932;6.674;2023-01-13T03:45:10;8.20;99.90
55213;DHT22;41083;52.932;6.674;2023-01-13T03:47:55;8.20;99.90
55213;DHT22;41083;52.932;6.674;2023-01-13T03:50:48;8.20;99.90
55213;DHT22;41083;52.932;6.674;2023-01-13T03:54:14;8.20;99.90
55213;DHT22;41083;52.932;6.674;2023-01-13T03:59:06;8.20;99.90
55213;DHT22;41083;52.932;6.674;2023-01-13T04:01:40;8.20;99.90
55213;DHT22;41083;52.932;6.674;2023-01-13T04:05:18;8.20;99.90
55213;DHT22;41083;52.932;6.674;2023-01-13T04:07:34;8.30;99.90
55213;DHT22;41083;52.932;6.674;2023-01-13T04:10:06;8.30;99.90
55213;DHT22;41083;52.932;6.674;2023-01-13T04:12:57;8.30;99.90
55213;DHT22;41083;52.932;6.674;2023-01-13T04:15:27;8.30;99.90
55213;DHT22;41083;52.932;6.674;2023-01-13T04:17:53;8.30;99.90
55213;DHT22;41083;52.932;6.674;2023-01-13T04:20:25;8.30;99.90
55213;DHT22;41083;52.932;6.674;2023-01-13T04:22:51;8.30;99.90
55213;DHT22;41083;52.932;6.674;2023-01-13T04:25:16;8.30;99.90
55213;DHT22;41083;52.932;6.674;2023-01-13T04:27:42;8.30;99.90
55213;DHT22;41083;52.932;6.674;2023-01-13T04:30:08;8.30;99.90
55213;DHT22;41083;52.932;6.674;2023-01-13T04:32:34;8.30;99.90
55213;DHT22;41083;52.932;6.674;2023-01-13T04:34:59;8.30;99.90
55213;DHT22;41083;52.932;6.674;2023-01-13T04:37:25;8.30;99.90
55213;DHT22;41083;52.932;6.674;2023-01-13T04:39:50;8.30;99.90
55213;DHT22;41083;52.932;6.674;2023-01-13T04:42:16;8.30;99.90
55213;DHT22;41083;52.932;6.674;2023-01-13T04:44:42;8.30;99.90
55213;DHT22;41083;52.932;6.674;2023-01-13T04:47:07;8.30;99.90
55213;DHT22;41083;52.932;6.674;2023-01-13T04:49:33;8.30;99.90
55213;DHT22;41083;52.932;6.674;2023-01-13T04:51:58;8.30;99.90
55213;DHT22;41083;52.932;6.674;2023-01-13T04:54:24;8.30;99.90
55213;DHT22;41083;52.932;6.674;2023-01-13T04:56:50;8.30;99.90
55213;DHT22;41083;52.932;6.674;2023-01-13T04:59:15;8.20;99.90
55213;DHT22;41083;52.932;6.674;2023-01-13T05:01:41;8.20;99.90
55213;DHT22;41083;52.932;6.674;2023-01-13T05:04:07;8.20;99.90
55213;DHT22;41083;52.932;6.674;2023-01-13T05:06:33;8.20;99.90
55213;DHT22;41083;52.932;6.674;2023-01-13T05:08:58;8.20;99.90
55213;DHT22;41083;52.932;6.674;2023-01-13T05:11:24;8.20;99.90
55213;DHT22;41083;52.932;6.674;2023-01-13T05:14:10;8.30;99.90
55213;DHT22;41083;52.932;6.674;2023-01-13T05:16:55;8.20;99.90
55213;DHT22;41083;52.932;6.674;2023-01-13T05:19:32;8.20;99.90
55213;DHT22;41083;52.932;6.674;2023-01-13T05:21:59;8.20;99.90
55213;DHT22;41083;52.932;6.674;2023-01-13T05:24:44;8.30;99.90
55213;DHT22;41083;52.932;6.674;2023-01-13T05:27:28;8.30;99.90
55213;DHT22;41083;52.932;6.674;2023-01-13T05:29:54;8.30;99.90
55213;DHT22;41083;52.932;6.674;2023-01-13T05:32:21;8.30;99.90
55213;DHT22;41083;52.932;6.674;2023-01-13T05:34:47;8.30;99.90
55213;DHT22;41083;52.932;6.674;2023-01-13T05:37:12;8.20;99.90
55213;DHT22;41083;52.932;6.674;2023-01-13T05:39:39;8.20;99.90
55213;DHT22;41083;52.932;6.674;2023-01-13T05:42:23;8.20;99.90
55213;DHT22;41083;52.932;6.674;2023-01-13T05:45:08;8.20;99.90
55213;DHT22;41083;52.932;6.674;2023-01-13T05:47:33;8.20;99.90
55213;DHT22;41083;52.932;6.674;2023-01-13T05:49:59;8.10;99.90
55213;DHT22;41083;52.932;6.674;2023-01-13T05:52:25;8.10;99.90
55213;DHT22;41083;52.932;6.674;2023-01-13T05:54:51;8.10;99.90
55213;DHT22;41083;52.932;6.674;2023-01-13T05:57:17;8.10;99.90
55213;DHT22;41083;52.932;6.674;2023-01-13T05:59:42;8.10;99.90
55213;DHT22;41083;52.932;6.674;2023-01-13T06:02:08;8.10;99.90
55213;DHT22;41083;52.932;6.674;2023-01-13T06:04:33;8.10;99.90
55213;DHT22;41083;52.932;6.674;2023-01-13T06:06:59;8.10;99.90
55213;DHT22;41083;52.932;6.674;2023-01-13T06:09:25;8.10;99.90
55213;DHT22;41083;52.932;6.674;2023-01-13T06:11:50;8.10;99.90
55213;DHT22;41083;52.932;6.674;2023-01-13T06:14:16;8.10;99.90
55213;DHT22;41083;52.932;6.674;2023-01-13T06:16:42;8.10;99.90
55213;DHT22;41083;52.932;6.674;2023-01-13T06:19:10;8.10;99.90
55213;DHT22;41083;52.932;6.674;2023-01-13T06:21:41;8.20;99.90
55213;DHT22;41083;52.932;6.674;2023-01-13T06:24:08;8.20;99.90
55213;DHT22;41083;52.932;6.674;2023-01-13T06:26:37;8.20;99.90
55213;DHT22;41083;52.932;6.674;2023-01-13T06:29:03;8.30;99.90
55213;DHT22;41083;52.932;6.674;2023-01-13T06:31:29;8.20;99.90
55213;DHT22;41083;52.932;6.674;2023-01-13T06:34:02;8.30;99.90
55213;DHT22;41083;52.932;6.674;2023-01-13T06:36:33;8.20;99.90
55213;DHT22;41083;52.932;6.674;2023-01-13T06:39:01;8.30;99.90
55213;DHT22;41083;52.932;6.674;2023-01-13T06:41:29;8.30;99.90
55213;DHT22;41083;52.932;6.674;2023-01-13T06:44:15;8.30;99.90
55213;DHT22;41083;52.932;6.674;2023-01-13T06:46:41;8.30;99.90
55213;DHT22;41083;52.932;6.674;2023-01-13T06:49:07;8.30;99.90
55213;DHT22;41083;52.932;6.674;2023-01-13T06:51:32;8.30;99.90
55213;DHT22;41083;52.932;6.674;2023-01-13T06:53:58;8.30;99.90
55213;DHT22;41083;52.932;6.674;2023-01-13T06:56:23;8.30;99.90
55213;DHT22;41083;52.932;6.674;2023-01-13T06:58:49;8.30;99.90
55213;DHT22;41083;52.932;6.674;2023-01-13T07:01:15;8.20;99.90
55213;DHT22;41083;52.932;6.674;2023-01-13T07:03:40;8.20;99.90
55213;DHT22;41083;52.932;6.674;2023-01-13T07:06:06;8.20;99.90
55213;DHT22;41083;52.932;6.674;2023-01-13T07:08:32;8.20;99.90
55213;DHT22;41083;52.932;6.674;2023-01-13T07:10:57;8.20;99.90
55213;DHT22;41083;52.932;6.674;2023-01-13T07:13:25;8.20;99.90
55213;DHT22;41083;52.932;6.674;2023-01-13T07:16:09;8.20;99.90
55213;DHT22;41083;52.932;6.674;2023-01-13T07:18:35;8.20;99.90
55213;DHT22;41083;52.932;6.674;2023-01-13T07:21:05;8.20;99.90
55213;DHT22;41083;52.932;6.674;2023-01-13T07:23:33;8.30;99.90
55213;DHT22;41083;52.932;6.674;2023-01-13T07:25:59;8.20;99.90
55213;DHT22;41083;52.932;6.674;2023-01-13T07:28:26;8.20;99.90
55213;DHT22;41083;52.932;6.674;2023-01-13T07:30:52;8.20;99.90
55213;DHT22;41083;52.932;6.674;2023-01-13T07:33:18;8.20;99.90
55213;DHT22;41083;52.932;6.674;2023-01-13T07:35:44;8.20;99.90
55213;DHT22;41083;52.932;6.674;2023-01-13T07:38:10;8.10;99.90
55213;DHT22;41083;52.932;6.674;2023-01-13T07:40:37;8.10;99.90
55213;DHT22;41083;52.932;6.674;2023-01-13T07:43:03;8.10;99.90
55213;DHT22;41083;52.932;6.674;2023-01-13T07:45:47;8.00;99.90
55213;DHT22;41083;52.932;6.674;2023-01-13T07:48:13;8.00;99.90
55213;DHT22;41083;52.932;6.674;2023-01-13T07:50:39;8.00;99.90
55213;DHT22;41083;52.932;6.674;2023-01-13T07:53:04;7.90;99.90
55213;DHT22;41083;52.932;6.674;2023-01-13T07:55:30;7.90;99.90
55213;DHT22;41083;52.932;6.674;2023-01-13T07:57:55;7.90;99.90
55213;DHT22;41083;52.932;6.674;2023-01-13T08:00:21;7.80;99.90
55213;DHT22;41083;52.932;6.674;2023-01-13T08:02:47;7.80;99.90
55213;DHT22;41083;52.932;6.674;2023-01-13T08:05:13;7.80;99.90
55213;DHT22;41083;52.932;6.674;2023-01-13T08:07:38;7.70;99.90
55213;DHT22;41083;52.932;6.674;2023-01-13T08:10:05;7.70;99.90
55213;DHT22;41083;52.932;6.674;2023-01-13T08:12:31;7.70;99.90
55213;DHT22;41083;52.932;6.674;2023-01-13T08:15:15;7.70;99.90
55213;DHT22;41083;52.932;6.674;2023-01-13T08:17:41;7.70;99.90
55213;DHT22;41083;52.932;6.674;2023-01-13T08:20:07;7.70;99.90
55213;DHT22;41083;52.932;6.674;2023-01-13T08:22:33;7.70;99.90
55213;DHT22;41083;52.932;6.674;2023-01-13T08:24:59;7.70;99.90
55213;DHT22;41083;52.932;6.674;2023-01-13T08:27:25;7.70;99.90
55213;DHT22;41083;52.932;6.674;2023-01-13T08:29:50;7.70;99.90
55213;DHT22;41083;52.932;6.674;2023-01-13T08:32:16;7.70;99.90
55213;DHT22;41083;52.932;6.674;2023-01-13T08:34:41;7.70;99.90
55213;DHT22;41083;52.932;6.674;2023-01-13T08:37:07;7.70;99.90
55213;DHT22;41083;52.932;6.674;2023-01-13T08:39:33;7.60;99.90
55213;DHT22;41083;52.932;6.674;2023-01-13T08:42:00;7.70;99.90
55213;DHT22;41083;52.932;6.674;2023-01-13T08:44:28;7.70;99.90
55213;DHT22;41083;52.932;6.674;2023-01-13T08:46:55;7.70;99.90
55213;DHT22;41083;52.932;6.674;2023-01-13T08:49:21;7.60;99.90
55213;DHT22;41083;52.932;6.674;2023-01-13T08:51:48;7.70;99.90
55213;DHT22;41083;52.932;6.674;2023-01-13T08:54:14;7.70;99.90
55213;DHT22;41083;52.932;6.674;2023-01-13T08:56:41;7.70;99.90
55213;DHT22;41083;52.932;6.674;2023-01-13T08:59:11;7.70;99.90
55213;DHT22;41083;52.932;6.674;2023-01-13T09:01:37;7.70;99.90
55213;DHT22;41083;52.932;6.674;2023-01-13T09:04:04;7.70;99.90
55213;DHT22;41083;52.932;6.674;2023-01-13T09:06:30;7.70;99.90
55213;DHT22;41083;52.932;6.674;2023-01-13T09:08:57;7.80;99.90
55213;DHT22;41083;52.932;6.674;2023-01-13T09:11:30;7.80;99.90
55213;DHT22;41083;52.932;6.674;2023-01-13T09:14:23;7.70;99.90
55213;DHT22;41083;52.932;6.674;2023-01-13T09:16:49;7.80;99.90
55213;DHT22;41083;52.932;6.674;2023-01-13T09:19:14;7.80;99.90
55213;DHT22;41083;52.932;6.674;2023-01-13T09:21:40;7.80;99.90
55213;DHT22;41083;52.932;6.674;2023-01-13T09:24:06;7.80;99.90
55213;DHT22;41083;52.932;6.674;2023-01-13T09:26:32;7.80;99.90
55213;DHT22;41083;52.932;6.674;2023-01-13T09:28:57;7.80;99.90
55213;DHT22;41083;52.932;6.674;2023-01-13T09:31:23;7.90;99.90
55213;DHT22;41083;52.932;6.674;2023-01-13T09:33:49;7.90;99.90
55213;DHT22;41083;52.932;6.674;2023-01-13T09:36:33;7.90;99.90
55213;DHT22;41083;52.932;6.674;2023-01-13T09:38:58;7.90;99.90
55213;DHT22;41083;52.932;6.674;2023-01-13T09:41:26;7.90;99.90
55213;DHT22;41083;52.932;6.674;2023-01-13T09:44:17;7.80;99.90
55213;DHT22;41083;52.932;6.674;2023-01-13T09:46:50;7.80;99.90
55213;DHT22;41083;52.932;6.674;2023-01-13T09:49:44;7.90;99.90
55213;DHT22;41083;52.932;6.674;2023-01-13T09:52:21;7.80;99.90
55213;DHT22;41083;52.932;6.674;2023-01-13T09:54:59;7.80;99.90
55213;DHT22;41083;52.932;6.674;2023-01-13T09:57:27;7.80;99.90
55213;DHT22;41083;52.932;6.674;2023-01-13T09:59:54;7.90;99.90
55213;DHT22;41083;52.932;6.674;2023-01-13T10:05:42;7.80;99.90
55213;DHT22;41083;52.932;6.674;2023-01-13T10:08:28;7.80;99.90
55213;DHT22;41083;52.932;6.674;2023-01-13T10:10:59;7.80;99.90
55213;DHT22;41083;52.932;6.674;2023-01-13T10:13:48;7.80;99.90
55213;DHT22;41083;52.932;6.674;2023-01-13T10:16:36;7.80;99.90
55213;DHT22;41083;52.932;6.674;2023-01-13T10:21:42;7.80;99.90
55213;DHT22;41083;52.932;6.674;2023-01-13T10:24:27;7.80;99.90
55213;DHT22;41083;52.932;6.674;2023-01-13T10:27:16;7.80;99.90
55213;DHT22;41083;52.932;6.674;2023-01-13T10:29:43;7.80;99.90
55213;DHT22;41083;52.932;6.674;2023-01-13T10:32:08;7.80;99.90
55213;DHT22;41083;52.932;6.674;2023-01-13T10:34:54;7.90;99.90
55213;DHT22;41083;52.932;6.674;2023-01-13T10:37:25;7.80;99.90
55213;DHT22;41083;52.932;6.674;2023-01-13T10:39:55;7.80;99.90
55213;DHT22;41083;52.932;6.674;2023-01-13T10:42:22;7.80;99.90
55213;DHT22;41083;52.932;6.674;2023-01-13T10:44:57;7.80;99.90
55213;DHT22;41083;52.932;6.674;2023-01-13T10:47:26;7.80;99.90
55213;DHT22;41083;52.932;6.674;2023-01-13T10:52:53;7.90;99.90
55213;DHT22;41083;52.932;6.674;2023-01-13T10:55:31;7.80;99.90
55213;DHT22;41083;52.932;6.674;2023-01-13T10:58:17;7.90;99.90
55213;DHT22;41083;52.932;6.674;2023-01-13T11:00:43;7.90;99.90
55213;DHT22;41083;52.932;6.674;2023-01-13T11:05:56;7.90;99.90
55213;DHT22;41083;52.932;6.674;2023-01-13T11:08:30;7.90;99.90
55213;DHT22;41083;52.932;6.674;2023-01-13T11:11:24;7.90;99.90
55213;DHT22;41083;52.932;6.674;2023-01-13T11:13:53;7.90;99.90
55213;DHT22;41083;52.932;6.674;2023-01-13T11:16:39;7.90;99.90
55213;DHT22;41083;52.932;6.674;2023-01-13T11:19:13;7.90;99.90
55213;DHT22;41083;52.932;6.674;2023-01-13T11:24:47;8.00;99.90
55213;DHT22;41083;52.932;6.674;2023-01-13T11:27:37;8.00;99.90
55213;DHT22;41083;52.932;6.674;2023-01-13T11:35:19;8.00;99.90
55213;DHT22;41083;52.932;6.674;2023-01-13T11:37:53;8.00;99.90
55213;DHT22;41083;52.932;6.674;2023-01-13T11:40:30;8.10;99.90
55213;DHT22;41083;52.932;6.674;2023-01-13T11:45:49;8.10;99.90
55213;DHT22;41083;52.932;6.674;2023-01-13T11:48:19;8.10;99.90
55213;DHT22;41083;52.932;6.674;2023-01-13T11:51:03;8.10;99.90
55213;DHT22;41083;52.932;6.674;2023-01-13T11:56:35;8.10;99.90
55213;DHT22;41083;52.932;6.674;2023-01-13T11:59:21;8.20;99.90
55213;DHT22;41083;52.932;6.674;2023-01-13T12:05:02;8.20;99.90
55213;DHT22;41083;52.932;6.674;2023-01-13T12:14:06;8.30;99.90
55213;DHT22;41083;52.932;6.674;2023-01-13T12:16:32;8.30;99.90
55213;DHT22;41083;52.932;6.674;2023-01-13T12:22:10;8.30;99.90
55213;DHT22;41083;52.932;6.674;2023-01-13T12:24:51;8.30;99.90
55213;DHT22;41083;52.932;6.674;2023-01-13T12:32:43;8.30;99.90
55213;DHT22;41083;52.932;6.674;2023-01-13T12:53:59;8.50;99.90
55213;DHT22;41083;52.932;6.674;2023-01-13T12:56:44;8.50;99.90
55213;DHT22;41083;52.932;6.674;2023-01-13T13:01:43;8.40;99.90
55213;DHT22;41083;52.932;6.674;2023-01-13T13:04:11;8.40;99.90
55213;DHT22;41083;52.932;6.674;2023-01-13T13:06:42;8.50;99.90
55213;DHT22;41083;52.932;6.674;2023-01-13T13:09:31;8.40;99.90
55213;DHT22;41083;52.932;6.674;2023-01-13T13:11:57;8.40;99.90
55213;DHT22;41083;52.932;6.674;2023-01-13T13:17:02;8.50;99.90
55213;DHT22;41083;52.932;6.674;2023-01-13T13:30:28;8.50;99.90
55213;DHT22;41083;52.932;6.674;2023-01-13T13:35:54;8.60;99.90
55213;DHT22;41083;52.932;6.674;2023-01-13T13:38:57;8.50;99.90
55213;DHT22;41083;52.932;6.674;2023-01-13T13:41:48;8.60;99.90
55213;DHT22;41083;52.932;6.674;2023-01-13T13:44:38;8.60;99.90
55213;DHT22;41083;52.932;6.674;2023-01-13T13:47:23;8.60;99.90
55213;DHT22;41083;52.932;6.674;2023-01-13T13:49:51;8.60;99.90
55213;DHT22;41083;52.932;6.674;2023-01-13T13:54:50;8.70;99.90
55213;DHT22;41083;52.932;6.674;2023-01-13T13:59:53;8.70;99.90
55213;DHT22;41083;52.932;6.674;2023-01-13T14:02:27;8.70;99.90
55213;DHT22;41083;52.932;6.674;2023-01-13T14:05:10;8.70;99.90
55213;DHT22;41083;52.932;6.674;2023-01-13T14:07:48;8.70;99.90
55213;DHT22;41083;52.932;6.674;2023-01-13T14:10:23;8.70;99.90
55213;DHT22;41083;52.932;6.674;2023-01-13T14:12:52;8.70;99.90
55213;DHT22;41083;52.932;6.674;2023-01-13T14:15:33;8.70;99.90
55213;DHT22;41083;52.932;6.674;2023-01-13T14:18:05;8.70;99.90
55213;DHT22;41083;52.932;6.674;2023-01-13T14:20:31;8.60;99.90
55213;DHT22;41083;52.932;6.674;2023-01-13T14:22:59;8.70;99.90
55213;DHT22;41083;52.932;6.674;2023-01-13T14:27:55;8.60;99.90
55213;DHT22;41083;52.932;6.674;2023-01-13T14:30:26;8.60;99.90
55213;DHT22;41083;52.932;6.674;2023-01-13T14:32:52;8.50;99.90
55213;DHT22;41083;52.932;6.674;2023-01-13T14:35:19;8.50;99.90
55213;DHT22;41083;52.932;6.674;2023-01-13T14:37:45;8.50;99.90
55213;DHT22;41083;52.932;6.674;2023-01-13T14:43:02;8.50;99.90
55213;DHT22;41083;52.932;6.674;2023-01-13T14:45:28;8.50;99.90
55213;DHT22;41083;52.932;6.674;2023-01-13T14:47:54;8.50;99.90
55213;DHT22;41083;52.932;6.674;2023-01-13T14:50:24;8.50;99.90
55213;DHT22;41083;52.932;6.674;2023-01-13T14:52:56;8.50;99.90
55213;DHT22;41083;52.932;6.674;2023-01-13T14:55:30;8.50;99.90
55213;DHT22;41083;52.932;6.674;2023-01-13T15:00:50;8.50;99.90
55213;DHT22;41083;52.932;6.674;2023-01-13T15:03:18;8.50;99.90
55213;DHT22;41083;52.932;6.674;2023-01-13T15:05:48;8.50;99.90
55213;DHT22;41083;52.932;6.674;2023-01-13T15:10:51;8.50;99.90
55213;DHT22;41083;52.932;6.674;2023-01-13T15:15:55;8.60;99.90
55213;DHT22;41083;52.932;6.674;2023-01-13T15:18:21;8.50;99.90
55213;DHT22;41083;52.932;6.674;2023-01-13T15:20:47;8.50;99.90
55213;DHT22;41083;52.932;6.674;2023-01-13T15:23:15;8.60;99.90
55213;DHT22;41083;52.932;6.674;2023-01-13T15:25:41;8.60;99.90
55213;DHT22;41083;52.932;6.674;2023-01-13T15:28:17;8.50;99.90
55213;DHT22;41083;52.932;6.674;2023-01-13T15:30:44;8.50;99.90
55213;DHT22;41083;52.932;6.674;2023-01-13T15:33:11;8.50;99.90
55213;DHT22;41083;52.932;6.674;2023-01-13T15:35:41;8.50;99.90
55213;DHT22;41083;52.932;6.674;2023-01-13T15:38:14;8.60;99.90
55213;DHT22;41083;52.932;6.674;2023-01-13T15:40:40;8.60;99.90
55213;DHT22;41083;52.932;6.674;2023-01-13T15:43:14;8.60;99.90
55213;DHT22;41083;52.932;6.674;2023-01-13T15:46:00;8.50;99.90
55213;DHT22;41083;52.932;6.674;2023-01-13T15:48:45;8.40;99.90
55213;DHT22;41083;52.932;6.674;2023-01-13T15:51:11;8.30;99.90
55213;DHT22;41083;52.932;6.674;2023-01-13T15:53:38;8.30;99.90
55213;DHT22;41083;52.932;6.674;2023-01-13T15:56:11;8.20;99.90
55213;DHT22;41083;52.932;6.674;2023-01-13T15:58:38;8.20;99.90
55213;DHT22;41083;52.932;6.674;2023-01-13T16:01:04;8.20;99.90
55213;DHT22;41083;52.932;6.674;2023-01-13T16:03:29;8.20;99.90
55213;DHT22;41083;52.932;6.674;2023-01-13T16:05:55;8.20;99.90
55213;DHT22;41083;52.932;6.674;2023-01-13T16:08:22;8.20;99.90
55213;DHT22;41083;52.932;6.674;2023-01-13T16:10:48;8.10;99.90
55213;DHT22;41083;52.932;6.674;2023-01-13T16:13:15;8.10;99.90
55213;DHT22;41083;52.932;6.674;2023-01-13T16:15:47;8.10;99.90
55213;DHT22;41083;52.932;6.674;2023-01-13T16:18:16;8.10;99.90
55213;DHT22;41083;52.932;6.674;2023-01-13T16:20:42;8.10;99.90
55213;DHT22;41083;52.932;6.674;2023-01-13T16:23:08;8.10;99.90
55213;DHT22;41083;52.932;6.674;2023-01-13T16:25:34;8.10;99.90
55213;DHT22;41083;52.932;6.674;2023-01-13T16:28:00;8.10;99.90
55213;DHT22;41083;52.932;6.674;2023-01-13T16:30:31;7.90;99.90
55213;DHT22;41083;52.932;6.674;2023-01-13T16:32:56;7.60;99.90
55213;DHT22;41083;52.932;6.674;2023-01-13T16:35:23;7.50;99.90
55213;DHT22;41083;52.932;6.674;2023-01-13T16:37:49;7.40;99.90
55213;DHT22;41083;52.932;6.674;2023-01-13T16:40:22;7.30;99.90
55213;DHT22;41083;52.932;6.674;2023-01-13T16:42:48;7.20;99.90
55213;DHT22;41083;52.932;6.674;2023-01-13T16:45:14;7.10;99.90
55213;DHT22;41083;52.932;6.674;2023-01-13T16:47:39;7.10;99.90
55213;DHT22;41083;52.932;6.674;2023-01-13T16:50:16;7.20;99.90
55213;DHT22;41083;52.932;6.674;2023-01-13T16:52:44;7.20;99.90
55213;DHT22;41083;52.932;6.674;2023-01-13T16:55:09;7.10;99.90
55213;DHT22;41083;52.932;6.674;2023-01-13T16:57:35;7.10;99.90
55213;DHT22;41083;52.932;6.674;2023-01-13T17:00:01;7.10;99.90
55213;DHT22;41083;52.932;6.674;2023-01-13T17:02:26;7.20;99.90
55213;DHT22;41083;52.932;6.674;2023-01-13T17:04:52;7.20;99.90
55213;DHT22;41083;52.932;6.674;2023-01-13T17:07:17;7.20;99.90
55213;DHT22;41083;52.932;6.674;2023-01-13T17:09:43;7.20;99.90
55213;DHT22;41083;52.932;6.674;2023-01-13T17:12:09;7.30;99.90
55213;DHT22;41083;52.932;6.674;2023-01-13T17:14:35;7.30;99.90
55213;DHT22;41083;52.932;6.674;2023-01-13T17:17:01;7.30;99.90
55213;DHT22;41083;52.932;6.674;2023-01-13T17:19:26;7.30;99.90
55213;DHT22;41083;52.932;6.674;2023-01-13T17:21:52;7.30;99.90
55213;DHT22;41083;52.932;6.674;2023-01-13T17:24:18;7.40;99.90
55213;DHT22;41083;52.932;6.674;2023-01-13T17:26:46;7.40;99.90
55213;DHT22;41083;52.932;6.674;2023-01-13T17:29:15;7.50;99.90
55213;DHT22;41083;52.932;6.674;2023-01-13T17:31:41;7.50;99.90
55213;DHT22;41083;52.932;6.674;2023-01-13T17:34:07;7.50;99.90
55213;DHT22;41083;52.932;6.674;2023-01-13T17:36:33;7.50;99.90
55213;DHT22;41083;52.932;6.674;2023-01-13T17:38:58;7.50;99.90
55213;DHT22;41083;52.932;6.674;2023-01-13T17:41:25;7.50;99.90
55213;DHT22;41083;52.932;6.674;2023-01-13T17:43:51;7.50;99.90
55213;DHT22;41083;52.932;6.674;2023-01-13T17:46:18;7.50;99.90
55213;DHT22;41083;52.932;6.674;2023-01-13T17:48:51;7.50;99.90
55213;DHT22;41083;52.932;6.674;2023-01-13T17:51:19;7.60;99.90
55213;DHT22;41083;52.932;6.674;2023-01-13T17:53:45;7.60;99.90
55213;DHT22;41083;52.932;6.674;2023-01-13T17:56:13;7.60;99.90
55213;DHT22;41083;52.932;6.674;2023-01-13T17:58:43;7.60;99.90
55213;DHT22;41083;52.932;6.674;2023-01-13T18:01:17;7.60;99.90
55213;DHT22;41083;52.932;6.674;2023-01-13T18:03:44;7.70;99.90
55213;DHT22;41083;52.932;6.674;2023-01-13T18:06:15;7.70;99.90
55213;DHT22;41083;52.932;6.674;2023-01-13T18:08:41;7.70;99.90
55213;DHT22;41083;52.932;6.674;2023-01-13T18:11:06;7.70;99.90